Emily Golding — WDI9033 — position and weather

sailwx.info

Track history (hours):
 
Tides and Currents Weather Stations Pressure Air Temp Water Temp Dewpoint Dewpoint Depression Visibility Wind Speed Wind Dir Waves Ship Positions

Emily Golding

Owner: GOLDING BARGE LINE, VICKSBURG, MS. More information available from US FCC via Universal Licensing System and Coast Guard Vessel Documentation Center.

Last reported at 2018-Jun-25 01:30 UTC. Time now 2018-Jun-25 01:53 UTC.
Position N 29°60' W 093°13'.

Length 31 m; draft 3 m.

Type: Towing. MMSI: 367744620.

Date/timePositionNaut miles runAvg speedWind from/ knotsBaromVisibWave heightAir tempDewpointWater temp
2018-Jun-25 01:30N 29°60' W 093°13'0 0.0
2018-Jun-25 01:00N 29°60' W 093°13'0 0.0
2018-Jun-25 00:30N 29°60' W 093°13'0 0.0
2018-Jun-25 00:00N 29°60' W 093°13'0 0.0
2018-Jun-24 23:30N 29°60' W 093°13'0 0.0
2018-Jun-24 23:00N 29°60' W 093°13'0 0.0
2018-Jun-24 22:30N 29°60' W 093°13'0 0.0
2018-Jun-24 22:00N 29°60' W 093°13'0 0.0
2018-Jun-24 21:30N 29°60' W 093°13'0 0.0
2018-Jun-24 21:00N 29°60' W 093°13'0 0.0
2018-Jun-24 20:30N 29°60' W 093°13'0 0.0
2018-Jun-24 20:00N 29°60' W 093°13'0 0.0
2018-Jun-24 19:30N 29°60' W 093°13'0 0.0
2018-Jun-24 19:00N 29°60' W 093°13'0 0.0
2018-Jun-24 18:30N 29°60' W 093°13'1 2.1
2018-Jun-24 18:00N 29°59' W 093°12'0 0.9
2018-Jun-24 17:30N 29°58' W 093°12'0 0.0
2018-Jun-24 17:00N 29°58' W 093°12'2 4.6
2018-Jun-24 16:30N 29°57' W 093°10'2 4.6
2018-Jun-24 16:00N 29°56' W 093°08'36 4.8
2018-Jun-24 08:33N 29°53' W 092°27'0 5.3
2018-Jun-24 08:28N 29°53' W 092°26'3 5.0
2018-Jun-24 07:55N 29°53' W 092°23'2 5.0
2018-Jun-24 07:30N 29°51' W 092°22'2 4.8
2018-Jun-24 07:00N 29°50' W 092°19'2 3.7
2018-Jun-24 06:30N 29°49' W 092°17'2 4.1
2018-Jun-24 06:00N 29°48' W 092°15'3 5.2
2018-Jun-24 05:30N 29°47' W 092°13'1 1.9
2018-Jun-24 05:00N 29°47' W 092°12'0 0.9
2018-Jun-24 04:30N 29°47' W 092°11'0 0.0
2018-Jun-24 03:59N 29°47' W 092°11'0 0.8
2018-Jun-24 03:30N 29°47' W 092°11'0 0.1
2018-Jun-24 03:00N 29°47' W 092°11'1 2.5
2018-Jun-24 02:30N 29°47' W 092°09'3 5.6
2018-Jun-24 02:00N 29°48' W 092°06'2 3.7
2018-Jun-24 01:30N 29°48' W 092°04'2 5.0
2018-Jun-24 01:00N 29°49' W 092°02'3 5.4
2018-Jun-24 00:30N 29°50' W 091°59'2 3.7
2018-Jun-24 00:00N 29°51' W 091°57'54 2.9
2018-Jun-23 05:05N 29°34' W 090°57'1 6.2
2018-Jun-23 04:59N 29°34' W 090°56'3 6.0
2018-Jun-23 04:27N 29°32' W 090°53'2 5.0
2018-Jun-23 04:00N 29°32' W 090°50'3 5.7
2018-Jun-23 03:30N 29°32' W 090°47'2 4.0
2018-Jun-23 03:00N 29°33' W 090°45'2 4.0
2018-Jun-23 02:30N 29°34' W 090°43'2 3.5
2018-Jun-23 02:00N 29°36' W 090°43'1 2.5
2018-Jun-23 01:30N 29°37' W 090°42'0 0.6
2018-Jun-23 01:00N 29°37' W 090°41'0 0.0
2018-Jun-23 00:30N 29°37' W 090°41'0 0.0
2018-Jun-23 00:00N 29°37' W 090°41'0 0.0
2018-Jun-22 23:30N 29°37' W 090°41'0 0.0
2018-Jun-22 23:00N 29°37' W 090°41'0 0.0
2018-Jun-22 22:30N 29°37' W 090°41'0 0.0
2018-Jun-22 22:00N 29°37' W 090°41'0 0.0
2018-Jun-22 21:30N 29°37' W 090°41'0 0.0
2018-Jun-22 21:00N 29°37' W 090°41'0 0.0
2018-Jun-22 20:30N 29°37' W 090°41'0 0.0
2018-Jun-22 20:00N 29°37' W 090°41'0 0.0
2018-Jun-22 19:30N 29°37' W 090°41'0 0.0
2018-Jun-22 19:00N 29°37' W 090°41'1 2.0
2018-Jun-22 18:30N 29°36' W 090°40'3 5.6
2018-Jun-22 18:00N 29°35' W 090°37'3 5.6
2018-Jun-22 17:30N 29°34' W 090°34'3 5.4
2018-Jun-22 17:00N 29°34' W 090°31'3 5.7
2018-Jun-22 16:27N 29°33' W 090°28'  
Track history (hours):
 
Tides and Currents Weather Stations Pressure Air Temp Water Temp Dewpoint Dewpoint Depression Visibility Wind Speed Wind Dir Waves Ship Positions

Emily Golding

Owner: GOLDING BARGE LINE, VICKSBURG, MS. More information available from US FCC via Universal Licensing System and Coast Guard Vessel Documentation Center.

Last reported at 2018-Jun-25 01:30 UTC. Time now 2018-Jun-25 01:53 UTC.
Position N 29°60' W 093°13'.

Length 31 m; draft 3 m.

Type: Towing. MMSI: 367744620.

Date/timePositionNaut miles runAvg speedWind from/ knotsBaromVisibWave heightAir tempDewpointWater temp
2018-Jun-25 01:30N 29°60' W 093°13'0 0.0
2018-Jun-25 01:00N 29°60' W 093°13'0 0.0
2018-Jun-25 00:30N 29°60' W 093°13'0 0.0
2018-Jun-25 00:00N 29°60' W 093°13'0 0.0
2018-Jun-24 23:30N 29°60' W 093°13'0 0.0
2018-Jun-24 23:00N 29°60' W 093°13'0 0.0
2018-Jun-24 22:30N 29°60' W 093°13'0 0.0
2018-Jun-24 22:00N 29°60' W 093°13'0 0.0
2018-Jun-24 21:30N 29°60' W 093°13'0 0.0
2018-Jun-24 21:00N 29°60' W 093°13'0 0.0
2018-Jun-24 20:30N 29°60' W 093°13'0 0.0
2018-Jun-24 20:00N 29°60' W 093°13'0 0.0
2018-Jun-24 19:30N 29°60' W 093°13'0 0.0
2018-Jun-24 19:00N 29°60' W 093°13'0 0.0
2018-Jun-24 18:30N 29°60' W 093°13'1 2.1
2018-Jun-24 18:00N 29°59' W 093°12'0 0.9
2018-Jun-24 17:30N 29°58' W 093°12'0 0.0
2018-Jun-24 17:00N 29°58' W 093°12'2 4.6
2018-Jun-24 16:30N 29°57' W 093°10'2 4.6
2018-Jun-24 16:00N 29°56' W 093°08'36 4.8
2018-Jun-24 08:33N 29°53' W 092°27'0 5.3
2018-Jun-24 08:28N 29°53' W 092°26'3 5.0
2018-Jun-24 07:55N 29°53' W 092°23'2 5.0
2018-Jun-24 07:30N 29°51' W 092°22'2 4.8
2018-Jun-24 07:00N 29°50' W 092°19'2 3.7
2018-Jun-24 06:30N 29°49' W 092°17'2 4.1
2018-Jun-24 06:00N 29°48' W 092°15'3 5.2
2018-Jun-24 05:30N 29°47' W 092°13'1 1.9
2018-Jun-24 05:00N 29°47' W 092°12'0 0.9
2018-Jun-24 04:30N 29°47' W 092°11'0 0.0
2018-Jun-24 03:59N 29°47' W 092°11'0 0.8
2018-Jun-24 03:30N 29°47' W 092°11'0 0.1
2018-Jun-24 03:00N 29°47' W 092°11'1 2.5
2018-Jun-24 02:30N 29°47' W 092°09'3 5.6
2018-Jun-24 02:00N 29°48' W 092°06'2 3.7
2018-Jun-24 01:30N 29°48' W 092°04'2 5.0
2018-Jun-24 01:00N 29°49' W 092°02'3 5.4
2018-Jun-24 00:30N 29°50' W 091°59'2 3.7
2018-Jun-24 00:00N 29°51' W 091°57'54 2.9
2018-Jun-23 05:05N 29°34' W 090°57'1 6.2
2018-Jun-23 04:59N 29°34' W 090°56'3 6.0
2018-Jun-23 04:27N 29°32' W 090°53'2 5.0
2018-Jun-23 04:00N 29°32' W 090°50'3 5.7
2018-Jun-23 03:30N 29°32' W 090°47'2 4.0
2018-Jun-23 03:00N 29°33' W 090°45'2 4.0
2018-Jun-23 02:30N 29°34' W 090°43'2 3.5
2018-Jun-23 02:00N 29°36' W 090°43'1 2.5
2018-Jun-23 01:30N 29°37' W 090°42'0 0.6
2018-Jun-23 01:00N 29°37' W 090°41'0 0.0
2018-Jun-23 00:30N 29°37' W 090°41'0 0.0
2018-Jun-23 00:00N 29°37' W 090°41'0 0.0
2018-Jun-22 23:30N 29°37' W 090°41'0 0.0
2018-Jun-22 23:00N 29°37' W 090°41'0 0.0
2018-Jun-22 22:30N 29°37' W 090°41'0 0.0
2018-Jun-22 22:00N 29°37' W 090°41'0 0.0
2018-Jun-22 21:30N 29°37' W 090°41'0 0.0
2018-Jun-22 21:00N 29°37' W 090°41'0 0.0
2018-Jun-22 20:30N 29°37' W 090°41'0 0.0
2018-Jun-22 20:00N 29°37' W 090°41'0 0.0
2018-Jun-22 19:30N 29°37' W 090°41'0 0.0
2018-Jun-22 19:00N 29°37' W 090°41'1 2.0
2018-Jun-22 18:30N 29°36' W 090°40'3 5.6
2018-Jun-22 18:00N 29°35' W 090°37'3 5.6
2018-Jun-22 17:30N 29°34' W 090°34'3 5.4
2018-Jun-22 17:00N 29°34' W 090°31'3 5.7
2018-Jun-22 16:27N 29°33' W 090°28'  

Dump ship's entire track history